createdAt,value
2022-12-25T00:00:20.734Z,5.60
2022-12-25T00:02:22.593Z,5.60
2022-12-25T00:04:24.063Z,5.54
2022-12-25T00:06:25.942Z,5.60
2022-12-25T00:08:27.331Z,5.57
2022-12-25T00:10:28.719Z,5.52
2022-12-25T00:12:30.137Z,5.53
2022-12-25T00:14:31.592Z,5.52
2022-12-25T00:16:33.047Z,5.53
2022-12-25T00:18:34.794Z,5.55
2022-12-25T00:20:36.269Z,5.52
2022-12-25T00:22:37.632Z,5.55
2022-12-25T00:24:39.059Z,5.59
2022-12-25T00:26:40.486Z,5.59
2022-12-25T00:28:42.336Z,5.65
2022-12-25T00:30:43.814Z,5.68
2022-12-25T00:32:45.267Z,5.75
2022-12-25T00:34:47.823Z,5.80
2022-12-25T00:36:52.568Z,5.86
2022-12-25T00:38:53.950Z,5.87
2022-12-25T00:40:55.354Z,5.96
2022-12-25T00:42:56.768Z,5.94
2022-12-25T00:44:58.262Z,5.96
2022-12-25T00:46:59.733Z,5.99
2022-12-25T00:49:01.802Z,6.00
2022-12-25T00:51:06.394Z,6.03
2022-12-25T00:53:07.766Z,6.03
2022-12-25T00:55:09.371Z,6.03
2022-12-25T00:57:10.754Z,6.05
2022-12-25T00:59:12.979Z,6.07
2022-12-25T01:01:14.621Z,6.09
2022-12-25T01:03:17.725Z,6.11
2022-12-25T01:05:19.166Z,6.15
2022-12-25T01:07:22.031Z,6.17
2022-12-25T01:09:41.719Z,6.28
2022-12-25T01:11:43.865Z,6.26
2022-12-25T01:13:45.279Z,6.31
2022-12-25T01:15:46.669Z,6.36
2022-12-25T01:17:48.116Z,6.36
2022-12-25T01:19:49.546Z,6.38
2022-12-25T01:21:50.916Z,6.40
2022-12-25T01:23:53.055Z,6.44
2022-12-25T01:25:54.433Z,6.44
2022-12-25T01:27:55.829Z,6.47
2022-12-25T01:29:57.248Z,6.48
2022-12-25T01:31:58.745Z,6.52
2022-12-25T01:34:00.172Z,6.58
2022-12-25T01:36:01.630Z,6.54
2022-12-25T01:38:03.016Z,6.57
2022-12-25T01:40:05.336Z,6.60
2022-12-25T01:42:06.713Z,6.62
2022-12-25T01:44:37.013Z,6.70
2022-12-25T01:46:38.455Z,6.65
2022-12-25T01:48:39.965Z,6.72
2022-12-25T01:50:44.770Z,6.75
2022-12-25T01:52:47.795Z,6.75
2022-12-25T01:55:03.988Z,6.79
2022-12-25T01:57:11.854Z,6.81
2022-12-25T01:59:17.632Z,6.83
2022-12-25T02:01:19.258Z,6.86
2022-12-25T02:03:22.416Z,6.89
2022-12-25T02:05:32.129Z,6.92
2022-12-25T02:07:39.966Z,6.92
2022-12-25T02:09:42.435Z,6.92
2022-12-25T02:12:10.403Z,6.95
2022-12-25T02:14:11.926Z,6.96
2022-12-25T02:16:21.023Z,6.96
2022-12-25T02:18:34.616Z,6.97
2022-12-25T02:21:00.778Z,7.00
2022-12-25T02:23:37.813Z,6.98
2022-12-25T02:26:00.375Z,7.01
2022-12-25T02:28:04.639Z,7.08
2022-12-25T02:30:08.616Z,7.10
2022-12-25T02:32:34.750Z,7.12
2022-12-25T02:35:10.793Z,7.18
2022-12-25T02:37:24.323Z,7.19
2022-12-25T02:40:00.445Z,7.23
2022-12-25T02:42:07.731Z,7.22
2022-12-25T02:44:35.043Z,7.25
2022-12-25T02:46:55.312Z,7.29
2022-12-25T02:49:19.683Z,7.37
2022-12-25T02:51:43.015Z,7.41
2022-12-25T02:54:05.789Z,7.47
2022-12-25T02:56:25.973Z,7.54
2022-12-25T02:58:46.722Z,7.57
2022-12-25T03:01:14.207Z,7.60
2022-12-25T03:03:35.116Z,7.67
2022-12-25T03:05:58.415Z,7.71
2022-12-25T03:08:04.412Z,7.75
2022-12-25T03:10:28.000Z,7.75
2022-12-25T03:12:47.503Z,7.79
2022-12-25T03:15:07.702Z,7.79
2022-12-25T03:17:09.411Z,7.80
2022-12-25T03:19:29.546Z,7.81
2022-12-25T03:21:49.452Z,7.81
2022-12-25T03:24:17.388Z,7.83
2022-12-25T03:26:37.690Z,7.89
2022-12-25T03:28:39.077Z,7.89
2022-12-25T03:31:02.097Z,7.92
2022-12-25T03:34:01.105Z,7.92
2022-12-25T03:36:26.763Z,7.92
2022-12-25T03:38:51.812Z,7.96
2022-12-25T03:41:36.981Z,7.98
2022-12-25T03:44:02.784Z,8.01
2022-12-25T03:46:25.702Z,8.03
2022-12-25T03:48:48.742Z,8.05
2022-12-25T03:51:22.090Z,8.08
2022-12-25T03:53:47.323Z,8.08
2022-12-25T03:56:08.912Z,8.12
2022-12-25T03:58:40.920Z,8.11
2022-12-25T04:01:00.725Z,8.16
2022-12-25T04:03:20.904Z,8.16
2022-12-25T04:05:40.988Z,8.17
2022-12-25T04:08:00.823Z,8.16
2022-12-25T04:10:21.210Z,8.18
2022-12-25T04:12:41.555Z,8.18
2022-12-25T04:15:01.391Z,8.16
2022-12-25T04:17:21.228Z,8.18
2022-12-25T04:19:41.214Z,8.18
2022-12-25T04:22:01.249Z,8.18
2022-12-25T04:24:21.193Z,8.18
2022-12-25T04:26:41.560Z,8.18
2022-12-25T04:29:01.570Z,8.22
2022-12-25T04:31:21.492Z,8.22
2022-12-25T04:33:41.767Z,8.22
2022-12-25T04:36:06.257Z,8.23
2022-12-25T04:38:07.709Z,8.23
2022-12-25T04:40:09.764Z,8.23
2022-12-25T04:42:11.228Z,8.26
2022-12-25T04:44:12.684Z,8.25
2022-12-25T04:46:14.226Z,8.22
2022-12-25T04:48:15.685Z,8.23
2022-12-25T04:50:17.215Z,8.25
2022-12-25T04:52:19.321Z,8.24
2022-12-25T04:54:20.784Z,8.25
2022-12-25T04:56:22.880Z,8.24
2022-12-25T04:58:24.353Z,8.20
2022-12-25T05:00:25.860Z,8.21
2022-12-25T05:02:27.463Z,8.20
2022-12-25T05:04:29.091Z,8.15
2022-12-25T05:06:30.479Z,8.14
2022-12-25T05:08:33.478Z,8.09
2022-12-25T05:10:34.975Z,8.06
2022-12-25T05:12:36.497Z,8.05
2022-12-25T05:14:39.147Z,7.99
2022-12-25T05:16:40.584Z,7.99
2022-12-25T05:18:42.217Z,7.96
2022-12-25T05:20:51.439Z,7.89
2022-12-25T05:22:52.890Z,7.79
2022-12-25T05:24:54.308Z,7.81
2022-12-25T05:26:55.723Z,7.74
2022-12-25T05:28:57.269Z,7.74
2022-12-25T05:30:58.876Z,7.71
2022-12-25T05:33:00.453Z,7.70
2022-12-25T05:35:01.961Z,7.64
2022-12-25T05:37:03.475Z,7.57
2022-12-25T05:39:04.940Z,7.52
2022-12-25T05:41:06.468Z,7.48
2022-12-25T05:43:08.321Z,7.45
2022-12-25T05:45:10.371Z,7.37
2022-12-25T05:47:11.840Z,7.36
2022-12-25T05:49:13.393Z,7.34
2022-12-25T05:51:15.008Z,7.34
2022-12-25T05:53:16.525Z,7.32
2022-12-25T05:55:17.961Z,7.28
2022-12-25T05:57:19.474Z,7.26
2022-12-25T05:59:20.944Z,7.22
2022-12-25T06:01:26.306Z,7.16
2022-12-25T06:03:27.991Z,7.19
2022-12-25T06:05:30.544Z,7.16
2022-12-25T06:07:32.035Z,7.14
2022-12-25T06:09:33.462Z,7.11
2022-12-25T06:11:34.908Z,7.10
2022-12-25T06:13:37.430Z,7.06
2022-12-25T06:15:42.144Z,7.03
2022-12-25T06:17:43.590Z,7.08
2022-12-25T06:19:45.113Z,7.15
2022-12-25T06:21:47.033Z,7.21
2022-12-25T06:23:48.821Z,7.20
2022-12-25T06:25:50.284Z,7.24
2022-12-25T06:27:51.724Z,7.33
2022-12-25T06:29:53.392Z,7.28
2022-12-25T06:31:57.286Z,7.27
2022-12-25T06:33:59.157Z,7.25
2022-12-25T06:36:14.164Z,7.25
2022-12-25T06:38:15.621Z,7.24
2022-12-25T06:40:17.051Z,7.21
2022-12-25T06:42:18.540Z,7.19
2022-12-25T06:44:20.012Z,7.17
2022-12-25T06:46:22.694Z,7.14
2022-12-25T06:48:24.167Z,7.08
2022-12-25T06:50:25.676Z,7.11
2022-12-25T06:52:27.115Z,7.11
2022-12-25T06:54:28.591Z,7.10
2022-12-25T06:56:31.193Z,7.06
2022-12-25T06:58:32.935Z,7.10
2022-12-25T07:00:34.352Z,7.06
2022-12-25T07:02:38.405Z,7.04
2022-12-25T07:04:42.203Z,7.05
2022-12-25T07:06:43.767Z,7.02
2022-12-25T07:08:45.228Z,7.02
2022-12-25T07:10:46.683Z,7.02
2022-12-25T07:12:48.116Z,6.97
2022-12-25T07:14:50.216Z,6.96
2022-12-25T07:16:51.939Z,6.93
2022-12-25T07:18:53.797Z,6.91
2022-12-25T07:20:55.847Z,6.87
2022-12-25T07:22:57.371Z,6.86
2022-12-25T07:24:58.756Z,6.83
2022-12-25T07:27:00.201Z,6.82
2022-12-25T07:29:01.690Z,6.81
2022-12-25T07:31:08.074Z,6.80
2022-12-25T07:33:09.525Z,6.81
2022-12-25T07:35:10.978Z,6.79
2022-12-25T07:37:13.089Z,6.83
2022-12-25T07:39:14.543Z,6.85
2022-12-25T07:41:16.429Z,6.88
2022-12-25T07:43:17.982Z,6.85
2022-12-25T07:45:19.458Z,6.87
2022-12-25T07:47:24.959Z,6.94
2022-12-25T07:49:26.361Z,6.96
2022-12-25T07:51:30.096Z,6.97
2022-12-25T07:53:32.146Z,7.01
2022-12-25T07:55:33.604Z,7.00
2022-12-25T07:57:36.384Z,7.03
2022-12-25T07:59:37.806Z,7.08
2022-12-25T08:01:39.397Z,7.14
2022-12-25T08:03:41.091Z,7.16
2022-12-25T08:05:42.636Z,7.20
2022-12-25T08:07:44.086Z,7.21
2022-12-25T08:09:45.612Z,7.23
2022-12-25T08:11:47.660Z,7.25
2022-12-25T08:13:49.108Z,7.27
2022-12-25T08:15:50.686Z,7.26
2022-12-25T08:17:52.108Z,7.30
2022-12-25T08:19:53.557Z,7.32
2022-12-25T08:21:55.936Z,7.35
2022-12-25T08:23:57.400Z,7.39
2022-12-25T08:26:05.071Z,7.45
2022-12-25T08:28:07.507Z,7.51
2022-12-25T08:30:09.324Z,7.58
2022-12-25T08:32:10.848Z,7.62
2022-12-25T08:34:12.595Z,7.68
2022-12-25T08:36:14.721Z,7.72
2022-12-25T08:38:16.134Z,7.75
2022-12-25T08:40:17.609Z,7.78
2022-12-25T08:42:19.063Z,7.81
2022-12-25T08:44:20.588Z,7.84
2022-12-25T08:46:22.199Z,7.84
2022-12-25T08:48:23.787Z,7.86
2022-12-25T08:50:25.679Z,7.90
2022-12-25T08:52:28.711Z,7.88
2022-12-25T08:54:32.422Z,7.90
2022-12-25T08:56:33.857Z,7.90
2022-12-25T08:58:36.028Z,7.93
2022-12-25T09:00:37.762Z,7.92
2022-12-25T09:02:39.329Z,7.96
2022-12-25T09:04:40.891Z,7.97
2022-12-25T09:06:42.292Z,8.02
2022-12-25T09:08:49.290Z,8.03
2022-12-25T09:10:51.332Z,8.06
2022-12-25T09:12:52.763Z,8.08
2022-12-25T09:14:54.278Z,8.10
2022-12-25T09:16:55.721Z,8.12
2022-12-25T09:19:00.099Z,8.13
2022-12-25T09:21:04.063Z,8.16
2022-12-25T09:23:11.612Z,8.18
2022-12-25T09:25:15.181Z,8.22
2022-12-25T09:27:16.613Z,8.25
2022-12-25T09:29:18.154Z,8.29
2022-12-25T09:31:21.692Z,8.31
2022-12-25T09:33:26.148Z,8.33
2022-12-25T09:35:27.580Z,8.38
2022-12-25T09:37:29.237Z,8.39
2022-12-25T09:39:30.716Z,8.44
2022-12-25T09:41:53.899Z,8.50
2022-12-25T09:43:58.174Z,8.51
2022-12-25T09:46:02.285Z,8.53
2022-12-25T09:48:04.605Z,8.54
2022-12-25T09:50:14.836Z,8.57
2022-12-25T09:52:45.567Z,8.59
2022-12-25T09:54:56.582Z,8.62
2022-12-25T09:56:58.015Z,8.62
2022-12-25T09:58:59.499Z,8.65
2022-12-25T10:01:14.211Z,8.68
2022-12-25T10:03:38.313Z,8.68
2022-12-25T10:06:08.621Z,8.70
2022-12-25T10:08:34.930Z,8.73
2022-12-25T10:10:59.844Z,8.74
2022-12-25T10:13:19.194Z,8.78
2022-12-25T10:15:39.156Z,8.78
2022-12-25T10:18:00.687Z,8.83
2022-12-25T10:20:20.230Z,8.86
2022-12-25T10:22:34.435Z,8.87
2022-12-25T10:25:02.500Z,8.88
2022-12-25T10:27:13.642Z,8.90
2022-12-25T10:29:19.380Z,8.94
2022-12-25T10:31:24.495Z,8.97
2022-12-25T10:33:26.055Z,9.00
2022-12-25T10:35:29.947Z,9.02
2022-12-25T10:37:31.454Z,9.05
2022-12-25T10:39:32.898Z,9.12
2022-12-25T10:41:53.357Z,9.12
2022-12-25T10:43:56.924Z,9.14
2022-12-25T10:45:58.700Z,9.16
2022-12-25T10:48:07.419Z,9.20
2022-12-25T10:50:09.657Z,9.26
2022-12-25T10:52:26.216Z,9.24
2022-12-25T10:54:33.363Z,9.20
2022-12-25T10:56:34.776Z,9.22
2022-12-25T10:58:36.207Z,9.26
2022-12-25T11:00:37.675Z,9.29
2022-12-25T11:02:40.705Z,9.24
2022-12-25T11:04:42.902Z,9.26
2022-12-25T11:06:44.420Z,9.27
2022-12-25T11:08:52.888Z,9.27
2022-12-25T11:10:57.905Z,9.27
2022-12-25T11:13:00.435Z,9.28
2022-12-25T11:15:27.203Z,9.28
2022-12-25T11:17:28.669Z,9.31
2022-12-25T11:19:32.496Z,9.31
2022-12-25T11:21:36.651Z,9.31
2022-12-25T11:23:44.808Z,9.30
2022-12-25T11:26:02.572Z,9.36
2022-12-25T11:28:05.885Z,9.33
2022-12-25T11:30:15.859Z,9.31
2022-12-25T11:32:31.289Z,9.35
2022-12-25T11:34:38.320Z,9.37
2022-12-25T11:36:47.859Z,9.39
2022-12-25T11:38:50.827Z,9.37
2022-12-25T11:40:55.961Z,9.39
2022-12-25T11:43:09.162Z,9.40
2022-12-25T11:45:18.766Z,9.41
2022-12-25T11:47:25.626Z,9.42
2022-12-25T11:49:28.941Z,9.39
2022-12-25T11:51:35.302Z,9.43
2022-12-25T11:53:41.137Z,9.42
2022-12-25T11:55:57.060Z,9.43
2022-12-25T11:58:04.317Z,9.43
2022-12-25T12:00:10.108Z,9.44
2022-12-25T12:02:36.401Z,9.47
2022-12-25T12:04:43.469Z,9.52
2022-12-25T12:06:55.575Z,9.55
2022-12-25T12:09:19.403Z,9.56
2022-12-25T12:11:36.825Z,9.57
2022-12-25T12:13:46.359Z,9.58
2022-12-25T12:15:49.448Z,9.58
2022-12-25T12:17:50.861Z,9.59
2022-12-25T12:19:52.718Z,9.56
2022-12-25T12:21:59.466Z,9.54
2022-12-25T12:24:18.630Z,9.55
2022-12-25T12:26:25.939Z,9.54
2022-12-25T12:28:33.141Z,9.56
2022-12-25T12:30:35.522Z,9.56
2022-12-25T12:32:44.344Z,9.57
2022-12-25T12:34:50.038Z,9.57
2022-12-25T12:37:00.960Z,9.57
2022-12-25T12:39:02.661Z,9.61
2022-12-25T12:41:07.537Z,9.65
2022-12-25T12:43:53.006Z,9.66
2022-12-25T12:45:57.681Z,9.65
2022-12-25T12:47:59.321Z,9.62
2022-12-25T12:50:01.871Z,9.61
2022-12-25T12:52:30.180Z,9.63
2022-12-25T12:54:31.710Z,9.60
2022-12-25T12:56:33.070Z,9.62
2022-12-25T12:58:37.775Z,9.59
2022-12-25T13:00:49.926Z,9.63
2022-12-25T13:03:28.492Z,9.62
2022-12-25T13:06:11.492Z,9.64
2022-12-25T13:08:34.680Z,9.61
2022-12-25T13:10:38.892Z,9.59
2022-12-25T13:12:40.373Z,9.61
2022-12-25T13:14:46.445Z,9.64
2022-12-25T13:16:51.791Z,9.65
2022-12-25T13:18:55.358Z,9.62
2022-12-25T13:21:05.631Z,9.64
2022-12-25T13:23:29.482Z,9.66
2022-12-25T13:25:30.859Z,9.66
2022-12-25T13:27:33.779Z,9.69
2022-12-25T13:29:38.064Z,9.71
2022-12-25T13:31:40.827Z,9.71
2022-12-25T13:33:51.726Z,9.69
2022-12-25T13:35:53.621Z,9.69
2022-12-25T13:37:56.173Z,9.72
2022-12-25T13:40:00.058Z,9.72
2022-12-25T13:42:10.938Z,9.75
2022-12-25T13:44:26.074Z,9.74
2022-12-25T13:46:27.800Z,9.77
2022-12-25T13:48:30.033Z,9.74
2022-12-25T13:50:33.256Z,9.74
2022-12-25T13:52:37.515Z,9.75
2022-12-25T13:54:39.893Z,9.75
2022-12-25T13:56:51.629Z,9.77
2022-12-25T13:58:53.110Z,9.77
2022-12-25T14:00:58.212Z,9.76
2022-12-25T14:03:00.535Z,9.78
2022-12-25T14:05:02.923Z,9.74
2022-12-25T14:07:12.091Z,9.77
2022-12-25T14:09:14.321Z,9.76
2022-12-25T14:11:18.120Z,9.77
2022-12-25T14:13:22.395Z,9.80
2022-12-25T14:15:24.367Z,9.81
2022-12-25T14:17:26.046Z,9.81
2022-12-25T14:19:30.219Z,9.81
2022-12-25T14:21:34.916Z,9.82
2022-12-25T14:23:46.492Z,9.83
2022-12-25T14:25:48.196Z,9.82
2022-12-25T14:27:52.252Z,9.85
2022-12-25T14:29:58.535Z,9.87
2022-12-25T14:32:04.541Z,9.90
2022-12-25T14:34:13.532Z,9.92
2022-12-25T14:36:15.010Z,9.90
2022-12-25T14:38:34.796Z,9.89
2022-12-25T14:40:36.222Z,9.91
2022-12-25T14:42:37.581Z,9.93
2022-12-25T14:44:40.911Z,9.91
2022-12-25T14:46:42.385Z,9.94
2022-12-25T14:48:43.871Z,9.97
2022-12-25T14:50:58.929Z,9.96
2022-12-25T14:53:00.681Z,9.94
2022-12-25T14:55:06.237Z,9.95
2022-12-25T14:57:14.812Z,9.99
2022-12-25T14:59:20.443Z,10.01
2022-12-25T15:01:29.348Z,10.01
2022-12-25T15:03:35.068Z,10.02
2022-12-25T15:05:38.861Z,9.99
2022-12-25T15:07:40.599Z,10.01
2022-12-25T15:09:42.002Z,10.01
2022-12-25T15:11:43.410Z,9.98
2022-12-25T15:13:44.794Z,10.02
2022-12-25T15:16:04.094Z,10.01
2022-12-25T15:18:05.596Z,10.01
2022-12-25T15:20:10.447Z,9.99
2022-12-25T15:22:13.194Z,10.04
2022-12-25T15:24:15.125Z,10.02
2022-12-25T15:26:16.560Z,10.09
2022-12-25T15:28:18.104Z,10.09
2022-12-25T15:30:19.645Z,10.07
2022-12-25T15:32:23.309Z,10.05
2022-12-25T15:34:24.736Z,10.13
2022-12-25T15:36:27.018Z,10.11
2022-12-25T15:38:28.452Z,10.07
2022-12-25T15:40:29.830Z,10.07
2022-12-25T15:42:31.211Z,10.09
2022-12-25T15:44:32.623Z,10.09
2022-12-25T15:46:34.688Z,10.07
2022-12-25T15:48:36.192Z,10.08
2022-12-25T15:50:37.631Z,10.09
2022-12-25T15:52:39.024Z,10.10
2022-12-25T15:54:40.475Z,10.08
2022-12-25T15:56:45.007Z,10.08
2022-12-25T15:58:46.408Z,10.13
2022-12-25T16:00:47.843Z,10.15
2022-12-25T16:02:50.090Z,10.16
2022-12-25T16:04:54.320Z,10.19
2022-12-25T16:06:56.173Z,10.20
2022-12-25T16:08:57.604Z,10.20
2022-12-25T16:10:59.013Z,10.22
2022-12-25T16:13:00.413Z,10.22
2022-12-25T16:15:01.848Z,10.22
2022-12-25T16:17:04.313Z,10.20
2022-12-25T16:19:08.345Z,10.21
2022-12-25T16:21:14.306Z,10.21
2022-12-25T16:23:15.749Z,10.21
2022-12-25T16:25:19.050Z,10.22
2022-12-25T16:27:21.360Z,10.24
2022-12-25T16:29:22.768Z,10.23
2022-12-25T16:31:24.192Z,10.22
2022-12-25T16:33:26.230Z,10.28
2022-12-25T16:35:27.754Z,10.26
2022-12-25T16:37:29.291Z,10.25
2022-12-25T16:39:30.956Z,10.26
2022-12-25T16:41:32.506Z,10.30
2022-12-25T16:43:33.956Z,10.32
2022-12-25T16:46:11.473Z,10.33
2022-12-25T16:48:13.694Z,10.35
2022-12-25T16:50:16.277Z,10.33
2022-12-25T16:52:17.723Z,10.37
2022-12-25T16:54:19.125Z,10.40
2022-12-25T16:56:21.051Z,10.38
2022-12-25T16:58:22.444Z,10.37
2022-12-25T17:00:23.818Z,10.36
2022-12-25T17:02:25.560Z,10.36
2022-12-25T17:04:27.826Z,10.41
2022-12-25T17:06:29.579Z,10.44
2022-12-25T17:08:33.398Z,10.44
2022-12-25T17:10:38.458Z,10.38
2022-12-25T17:12:39.888Z,10.48
2022-12-25T17:14:41.445Z,10.48
2022-12-25T17:16:42.942Z,10.50
2022-12-25T17:18:45.019Z,10.47
2022-12-25T17:20:53.527Z,10.51
2022-12-25T17:22:54.998Z,10.51
2022-12-25T17:24:59.530Z,10.52
2022-12-25T17:27:01.710Z,10.62
2022-12-25T17:29:03.630Z,10.57
2022-12-25T17:31:10.993Z,10.58
2022-12-25T17:33:12.432Z,10.57
2022-12-25T17:35:17.734Z,10.65
2022-12-25T17:37:19.243Z,10.64
2022-12-25T17:39:20.651Z,10.62
2022-12-25T17:41:22.044Z,10.68
2022-12-25T17:43:23.583Z,10.68
2022-12-25T17:45:25.220Z,10.70
2022-12-25T17:47:26.656Z,10.66
2022-12-25T17:49:28.033Z,10.68
2022-12-25T17:51:30.782Z,10.74
2022-12-25T17:53:34.534Z,10.69
2022-12-25T17:55:41.049Z,10.69
2022-12-25T17:57:42.425Z,10.73
2022-12-25T17:59:43.952Z,10.72
2022-12-25T18:01:46.850Z,10.73
2022-12-25T18:03:49.221Z,10.72
2022-12-25T18:05:50.617Z,10.72
2022-12-25T18:07:52.529Z,10.73
2022-12-25T18:09:53.920Z,10.71
2022-12-25T18:11:55.709Z,10.73
2022-12-25T18:13:58.181Z,10.73
2022-12-25T18:16:07.494Z,10.76
2022-12-25T18:18:09.467Z,10.80
2022-12-25T18:20:11.344Z,10.76
2022-12-25T18:22:12.791Z,10.73
2022-12-25T18:24:14.264Z,10.74
2022-12-25T18:26:15.779Z,10.71
2022-12-25T18:28:17.249Z,10.71
2022-12-25T18:30:19.929Z,10.75
2022-12-25T18:32:27.874Z,10.76
2022-12-25T18:34:30.359Z,10.76
2022-12-25T18:36:32.860Z,10.75
2022-12-25T18:38:35.475Z,10.79
2022-12-25T18:40:56.049Z,10.79
2022-12-25T18:43:51.571Z,10.83
2022-12-25T18:45:44.388Z,10.81
2022-12-25T18:47:46.371Z,10.78
2022-12-25T18:49:48.499Z,10.78
2022-12-25T18:51:50.106Z,10.78
2022-12-25T18:53:51.772Z,10.76
2022-12-25T18:55:58.129Z,10.83
2022-12-25T18:57:59.619Z,10.82
2022-12-25T19:00:02.815Z,10.79
2022-12-25T19:02:04.378Z,10.77
2022-12-25T19:04:06.135Z,10.82
2022-12-25T19:06:07.879Z,10.82
2022-12-25T19:08:09.389Z,10.82
2022-12-25T19:10:10.814Z,10.81
2022-12-25T19:12:12.190Z,10.80
2022-12-25T19:14:13.892Z,10.77
2022-12-25T19:16:16.089Z,10.80
2022-12-25T19:18:17.642Z,10.84
2022-12-25T19:20:19.920Z,10.80
2022-12-25T19:22:22.371Z,10.78
2022-12-25T19:24:25.026Z,10.79
2022-12-25T19:26:26.425Z,10.83
2022-12-25T19:28:27.902Z,10.84
2022-12-25T19:30:29.331Z,10.83
2022-12-25T19:32:30.962Z,10.80
2022-12-25T19:34:32.395Z,10.82
2022-12-25T19:36:34.470Z,10.80
2022-12-25T19:38:36.535Z,10.83
2022-12-25T19:40:39.873Z,10.86
2022-12-25T19:42:41.285Z,10.89
2022-12-25T19:44:44.266Z,10.93
2022-12-25T19:46:45.768Z,10.92
2022-12-25T19:48:47.842Z,10.93
2022-12-25T19:50:49.661Z,10.90
2022-12-25T19:52:51.054Z,10.92
2022-12-25T19:54:52.624Z,10.97
2022-12-25T19:56:54.018Z,10.95
2022-12-25T19:58:56.402Z,10.93
2022-12-25T20:01:05.081Z,10.87
2022-12-25T20:03:06.610Z,10.84
2022-12-25T20:05:08.388Z,10.84
2022-12-25T20:07:09.773Z,10.81
2022-12-25T20:09:20.866Z,10.80
2022-12-25T20:11:25.946Z,10.76
2022-12-25T20:13:27.366Z,10.77
2022-12-25T20:15:28.909Z,10.76
2022-12-25T20:17:30.317Z,10.74
2022-12-25T20:19:31.781Z,10.70
2022-12-25T20:21:33.239Z,10.68
2022-12-25T20:23:34.994Z,10.69
2022-12-25T20:25:42.627Z,10.70
2022-12-25T20:27:44.021Z,10.68
2022-12-25T20:29:45.484Z,10.68
2022-12-25T20:31:46.957Z,10.67
2022-12-25T20:33:48.595Z,10.64
2022-12-25T20:35:50.438Z,10.64
2022-12-25T20:37:52.525Z,10.62
2022-12-25T20:40:01.381Z,10.61
2022-12-25T20:42:02.888Z,10.61
2022-12-25T20:44:06.337Z,10.66
2022-12-25T20:46:08.075Z,10.60
2022-12-25T20:48:09.522Z,10.58
2022-12-25T20:50:10.985Z,10.56
2022-12-25T20:52:12.396Z,10.58
2022-12-25T20:54:14.805Z,10.56
2022-12-25T20:56:18.664Z,10.52
2022-12-25T20:58:20.099Z,10.51
2022-12-25T21:00:22.162Z,10.50
2022-12-25T21:02:35.740Z,10.50
2022-12-25T21:04:38.144Z,10.50
2022-12-25T21:06:39.584Z,10.48
2022-12-25T21:08:41.267Z,10.47
2022-12-25T21:10:45.198Z,10.48
2022-12-25T21:12:46.616Z,10.47
2022-12-25T21:14:48.071Z,10.47
2022-12-25T21:16:50.050Z,10.43
2022-12-25T21:21:22.209Z,10.44
2022-12-25T21:23:26.515Z,10.41
2022-12-25T21:25:27.934Z,10.38
2022-12-25T21:27:29.816Z,10.37
2022-12-25T21:29:31.257Z,10.40
2022-12-25T21:31:53.345Z,10.38
2022-12-25T21:33:55.723Z,10.36
2022-12-25T21:36:04.926Z,10.34
2022-12-25T21:38:06.438Z,10.32
2022-12-25T21:40:12.882Z,10.31
2022-12-25T21:42:17.650Z,10.29
2022-12-25T21:44:19.104Z,10.31
2022-12-25T21:46:21.052Z,10.31
2022-12-25T21:48:22.537Z,10.28
2022-12-25T21:50:42.809Z,10.23
2022-12-25T21:52:44.274Z,10.26
2022-12-25T21:54:46.092Z,10.25
2022-12-25T21:56:48.396Z,10.25
2022-12-25T21:58:50.111Z,10.26
2022-12-25T22:00:52.146Z,10.23
2022-12-25T22:02:53.806Z,10.23
2022-12-25T22:04:55.717Z,10.21
2022-12-25T22:07:15.690Z,10.22
2022-12-25T22:09:17.130Z,10.26
2022-12-25T22:11:37.521Z,10.23
2022-12-25T22:13:57.750Z,10.21
2022-12-25T22:16:24.359Z,10.23
2022-12-25T22:18:44.640Z,10.26
2022-12-25T22:20:46.134Z,10.22
2022-12-25T22:22:47.667Z,10.17
2022-12-25T22:24:54.062Z,10.22
2022-12-25T22:26:55.443Z,10.21
2022-12-25T22:28:56.889Z,10.21
2022-12-25T22:30:58.331Z,10.16
2022-12-25T22:32:59.900Z,10.14
2022-12-25T22:35:01.633Z,10.17
2022-12-25T22:37:04.208Z,10.21
2022-12-25T22:39:05.691Z,10.14
2022-12-25T22:41:07.775Z,10.14
2022-12-25T22:43:09.172Z,10.15
2022-12-25T22:45:11.474Z,10.15
2022-12-25T22:47:12.881Z,10.15
2022-12-25T22:49:16.302Z,10.20
2022-12-25T22:51:17.723Z,10.17
2022-12-25T22:53:19.386Z,10.21
2022-12-25T22:55:20.842Z,10.18
2022-12-25T22:57:22.265Z,10.15
2022-12-25T22:59:24.027Z,10.16
2022-12-25T23:01:25.564Z,10.15
2022-12-25T23:03:27.210Z,10.15
2022-12-25T23:05:28.619Z,10.11
2022-12-25T23:07:30.048Z,10.11
2022-12-25T23:09:31.414Z,10.08
2022-12-25T23:11:33.984Z,10.08
2022-12-25T23:13:54.239Z,10.04
2022-12-25T23:15:55.701Z,10.07
2022-12-25T23:18:15.972Z,10.03
2022-12-25T23:20:35.661Z,10.06
2022-12-25T23:22:55.441Z,10.05
2022-12-25T23:25:16.821Z,10.06
2022-12-25T23:27:18.252Z,10.05
2022-12-25T23:29:37.650Z,10.04
2022-12-25T23:31:40.550Z,10.07
2022-12-25T23:33:42.303Z,10.03
2022-12-25T23:35:43.726Z,10.05
2022-12-25T23:37:46.562Z,10.08
2022-12-25T23:39:49.934Z,10.10
2022-12-25T23:41:51.359Z,10.09
2022-12-25T23:43:52.766Z,10.06
2022-12-25T23:45:54.106Z,10.06
2022-12-25T23:47:55.528Z,10.03
2022-12-25T23:49:56.931Z,10.07
2022-12-25T23:51:58.513Z,10.02
2022-12-25T23:54:00.040Z,10.04
2022-12-25T23:56:01.659Z,10.03
2022-12-25T23:58:03.218Z,10.04
